Terminal Aerodrome Forecast
Issued by NWS

Home | Current Version | Previous Version | Text Only | Print | Product List | Glossary On
Versions: 1 2 3 4 5 6 7 8 9 10 11 12 13 14 15 16 17 18
000
FTUS46 KMTR 272320
TAFSTS
TAF
KSTS 272320Z 2800/2824 19009KT P6SM SKC
     FM280500 16004KT P6SM SCT010
     FM280800 VRB02KT P6SM BKN008
     FM281000 00000KT P6SM OVC005
     FM281700 VRB03KT P6SM SCT008
     FM281900 17009KT P6SM SKC=

USA.gov is the U.S. government's official web portal to all federal, state and local government web resources and services.